Time;durP1;ratioP1;P1;durP2;ratioP2;P2;SDS_P1;SDS_P2;PMS_P1;PMS_P2;Temp;Humidity;BMP_temperature;BMP_pressure;BME280_temperature;BME280_humidity;BME280_pressure;Samples;Min_cycle;Max_cycle;Signal;HPM_P1;HPM_P2
2022/06/21 00:00:56;;;;;;;10.50;2.03;;;11.80;99.90;;;;;;5034781;28;20488;-79
2022/06/21 00:03:25;;;;;;;7.50;1.80;;;11.70;99.90;;;;;;5009524;28;20447;-80
2022/06/21 00:05:52;;;;;;;7.75;2.30;;;11.70;99.90;;;;;;5027411;28;20053;-79
2022/06/21 00:08:22;;;;;;;7.93;1.90;;;11.60;99.90;;;;;;4992194;28;20039;-77
2022/06/21 00:10:49;;;;;;;6.43;1.60;;;11.60;99.90;;;;;;5037632;28;20045;-77
2022/06/21 00:13:22;;;;;;;8.40;1.85;;;11.50;99.90;;;;;;5036782;28;20041;-77
2022/06/21 00:15:52;;;;;;;8.10;1.92;;;11.60;99.90;;;;;;5025373;28;20064;-77
2022/06/21 00:18:20;;;;;;;6.43;1.90;;;11.70;99.90;;;;;;5036060;28;20071;-78
2022/06/21 00:20:46;;;;;;;7.72;1.90;;;11.70;99.90;;;;;;5025807;28;20045;-78
2022/06/21 00:23:15;;;;;;;6.47;1.80;;;11.50;99.90;;;;;;5013107;28;20542;-77
2022/06/21 00:25:42;;;;;;;7.85;1.90;;;11.50;99.90;;;;;;5054618;28;20029;-79
2022/06/21 00:28:08;;;;;;;6.95;1.80;;;11.60;99.90;;;;;;5047839;28;20092;-79
2022/06/21 00:30:33;;;;;;;6.97;1.90;;;11.60;99.90;;;;;;5028025;28;20029;-79
2022/06/21 00:32:59;;;;;;;8.45;2.20;;;11.50;99.90;;;;;;5049232;28;20092;-79
2022/06/21 00:35:26;;;;;;;6.30;1.73;;;11.50;99.90;;;;;;5067601;28;20041;-79
2022/06/21 00:37:53;;;;;;;8.45;2.15;;;11.50;99.90;;;;;;5050623;28;20021;-79
2022/06/21 00:40:37;;;;;;;7.97;2.25;;;11.50;99.90;;;;;;5066982;28;20514;-80
2022/06/21 00:43:26;;;;;;;10.02;2.45;;;11.50;99.90;;;;;;5050967;28;20021;-79
2022/06/21 00:45:52;;;;;;;8.40;2.30;;;11.40;99.90;;;;;;5045121;28;20029;-80
2022/06/21 00:48:20;;;;;;;7.38;2.13;;;11.40;99.90;;;;;;5042407;28;20045;-80
2022/06/21 00:50:53;;;;;;;6.72;1.70;;;11.40;99.90;;;;;;5050343;28;20025;-78
2022/06/21 00:53:36;;;;;;;6.18;1.70;;;11.40;99.90;;;;;;5064240;28;20048;-79
2022/06/21 00:56:25;;;;;;;5.93;1.80;;;11.40;99.90;;;;;;5030715;28;20021;-80
2022/06/21 00:58:50;;;;;;;8.35;2.38;;;11.50;99.90;;;;;;5052834;28;20050;-80
2022/06/21 01:03:48;;;;;;;6.97;2.05;;;11.40;99.90;;;;;;5061931;22;20049;-79
2022/06/21 01:06:23;;;;;;;6.32;1.85;;;11.40;99.90;;;;;;5040233;28;20040;-80
2022/06/21 01:08:54;;;;;;;6.50;1.90;;;11.20;99.90;;;;;;5046871;23;20065;-71
2022/06/21 01:11:27;;;;;;;6.97;1.90;;;11.20;99.90;;;;;;5017343;28;20460;-73
2022/06/21 01:13:56;;;;;;;8.18;1.75;;;11.30;99.90;;;;;;5036376;28;20081;-72
2022/06/21 01:16:25;;;;;;;5.18;1.73;;;11.30;99.90;;;;;;5022965;28;20469;-74
2022/06/21 01:18:51;;;;;;;8.20;2.30;;;11.20;99.90;;;;;;5026194;28;20438;-72
2022/06/21 01:21:20;;;;;;;10.45;2.92;;;11.30;99.90;;;;;;5020891;28;20045;-72
2022/06/21 01:24:01;;;;;;;8.38;2.00;;;11.20;99.90;;;;;;5029823;28;20403;-74
2022/06/21 01:26:58;;;;;;;6.05;1.70;;;11.10;99.90;;;;;;5024372;28;20472;-71
2022/06/21 01:29:27;;;;;;;7.35;2.10;;;11.10;99.90;;;;;;5023679;28;20049;-73
2022/06/21 01:31:56;;;;;;;8.38;2.03;;;11.10;99.90;;;;;;5030001;28;20542;-71
2022/06/21 01:34:24;;;;;;;7.13;2.03;;;11.00;99.90;;;;;;5023068;28;20053;-71
2022/06/21 01:36:58;;;;;;;7.60;1.85;;;11.00;99.90;;;;;;5017442;28;20391;-71
2022/06/21 01:39:29;;;;;;;6.20;2.00;;;11.00;99.90;;;;;;5016944;28;20049;-72
2022/06/21 01:42:03;;;;;;;5.82;1.88;;;11.00;99.90;;;;;;5037663;28;20048;-72
2022/06/21 01:44:34;;;;;;;6.03;1.60;;;11.00;99.90;;;;;;5034274;28;20045;-75
2022/06/21 01:47:03;;;;;;;7.43;1.77;;;11.00;99.90;;;;;;5015505;28;20057;-72
2022/06/21 01:49:33;;;;;;;6.38;1.83;;;11.00;99.90;;;;;;5014803;28;20050;-72
2022/06/21 01:52:09;;;;;;;7.93;1.85;;;10.90;99.90;;;;;;5019692;28;20045;-72
2022/06/21 01:54:39;;;;;;;6.15;1.65;;;10.90;99.90;;;;;;5021096;28;20060;-71
2022/06/21 01:57:08;;;;;;;7.45;2.03;;;10.80;99.90;;;;;;5020113;28;20102;-72
2022/06/21 01:59:39;;;;;;;6.68;1.90;;;10.80;99.90;;;;;;5028087;28;20057;-71
2022/06/21 02:02:11;;;;;;;8.02;2.70;;;10.70;99.90;;;;;;5022277;28;20542;-71
2022/06/21 02:04:44;;;;;;;8.45;2.58;;;10.60;99.90;;;;;;5014484;28;20057;-71
2022/06/21 02:07:14;;;;;;;7.35;2.58;;;10.50;99.90;;;;;;5019973;28;20046;-71
2022/06/21 02:09:49;;;;;;;6.68;2.22;;;10.50;99.90;;;;;;5066664;28;20052;-71
2022/06/21 02:12:15;;;;;;;7.97;2.15;;;10.50;99.90;;;;;;5037402;28;20049;-71
2022/06/21 02:14:48;;;;;;;6.53;2.17;;;10.40;99.90;;;;;;5055126;28;20049;-71
2022/06/21 02:17:34;;;;;;;6.50;2.25;;;10.40;99.90;;;;;;5050849;28;20048;-72
2022/06/21 02:20:18;;;;;;;6.70;2.00;;;10.50;99.90;;;;;;5051024;28;20059;-72
2022/06/21 02:22:44;;;;;;;6.85;2.33;;;10.50;99.90;;;;;;5041919;28;20052;-72
2022/06/21 02:25:22;;;;;;;8.80;3.05;;;10.50;99.90;;;;;;5045408;28;20364;-72
2022/06/21 02:27:50;;;;;;;7.10;2.22;;;10.40;99.90;;;;;;5055548;28;20053;-72
2022/06/21 02:30:22;;;;;;;8.32;2.40;;;10.40;99.90;;;;;;5063055;28;20345;-71
2022/06/21 02:32:51;;;;;;;8.93;2.80;;;10.40;99.90;;;;;;5040788;28;20101;-71
2022/06/21 02:35:32;;;;;;;7.85;2.30;;;10.40;99.90;;;;;;5062525;28;20053;-73
2022/06/21 02:38:03;;;;;;;7.22;2.30;;;10.40;99.90;;;;;;5043011;28;20048;-71
2022/06/21 02:40:34;;;;;;;6.95;2.20;;;10.40;99.90;;;;;;5059735;28;20048;-71
2022/06/21 02:43:08;;;;;;;6.68;2.20;;;10.40;99.90;;;;;;5036567;28;20107;-71
2022/06/21 02:45:48;;;;;;;6.28;2.30;;;10.50;99.90;;;;;;5054594;28;20056;-72
2022/06/21 02:48:18;;;;;;;6.75;2.60;;;10.60;99.90;;;;;;5043689;28;20131;-71
2022/06/21 02:50:54;;;;;;;5.72;2.40;;;10.40;99.90;;;;;;5035389;28;20052;-84
2022/06/21 02:53:30;;;;;;;7.00;2.13;;;10.40;99.90;;;;;;5036244;28;20137;-72
2022/06/21 02:56:11;;;;;;;7.20;2.55;;;10.40;99.90;;;;;;5053583;28;20052;-73
2022/06/21 02:58:40;;;;;;;7.93;3.05;;;10.40;99.90;;;;;;5047845;28;20369;-71
2022/06/21 03:01:17;;;;;;;7.25;2.80;;;10.40;99.90;;;;;;5053777;28;20128;-71
2022/06/21 03:03:43;;;;;;;6.72;2.10;;;10.30;99.90;;;;;;5019894;28;20060;-71
2022/06/21 03:06:13;;;;;;;6.35;2.00;;;10.30;99.90;;;;;;5066848;28;20048;-71
2022/06/21 03:08:51;;;;;;;8.07;2.08;;;10.30;99.90;;;;;;5042959;28;20441;-71
2022/06/21 03:11:19;;;;;;;6.63;1.95;;;10.30;99.90;;;;;;5037632;28;20052;-72
2022/06/21 03:13:45;;;;;;;5.22;1.98;;;10.40;99.90;;;;;;5042742;28;20041;-72
2022/06/21 03:16:14;;;;;;;6.88;2.63;;;10.40;99.90;;;;;;5055925;28;20057;-72
2022/06/21 03:18:49;;;;;;;5.97;2.50;;;10.20;99.90;;;;;;5052831;28;20121;-71
2022/06/21 03:21:26;;;;;;;8.00;2.67;;;10.20;99.90;;;;;;5043006;28;20105;-72
2022/06/21 03:23:53;;;;;;;6.30;2.10;;;10.10;99.90;;;;;;5054147;28;20437;-72
2022/06/21 03:26:19;;;;;;;7.88;2.50;;;10.10;99.90;;;;;;5053721;28;20049;-72
2022/06/21 03:28:45;;;;;;;5.95;1.92;;;10.00;99.90;;;;;;5035724;28;20045;-72
2022/06/21 03:31:24;;;;;;;7.25;2.22;;;10.10;99.90;;;;;;5066729;28;20072;-71
2022/06/21 03:33:53;;;;;;;6.38;2.03;;;10.10;99.90;;;;;;5052515;28;20060;-71
2022/06/21 03:36:24;;;;;;;6.05;2.10;;;10.10;99.90;;;;;;5040404;28;20123;-72
2022/06/21 03:38:58;;;;;;;7.03;2.63;;;10.10;99.90;;;;;;5033546;28;20057;-71
2022/06/21 03:41:43;;;;;;;5.85;2.30;;;10.10;99.90;;;;;;5035087;28;20048;-72
2022/06/21 03:44:32;;;;;;;6.85;2.50;;;10.10;99.90;;;;;;5067025;28;20135;-71
2022/06/21 03:47:25;;;;;;;9.07;3.45;;;10.20;99.90;;;;;;5051970;28;20403;-73
2022/06/21 03:49:54;;;;;;;;;;;10.20;99.90;;;;;;5044340;28;20417;-72
2022/06/21 03:52:44;;;;;;;7.38;2.55;;;10.10;99.90;;;;;;5072691;28;19952;-72
2022/06/21 03:55:36;;;;;;;6.88;2.60;;;10.10;99.90;;;;;;5055183;28;20101;-72
2022/06/21 03:58:28;;;;;;;6.87;2.90;;;10.20;99.90;;;;;;5054053;28;20045;-72
2022/06/21 04:01:10;;;;;;;6.32;2.50;;;10.10;99.90;;;;;;5053271;28;20315;-71
2022/06/21 04:03:44;;;;;;;6.75;2.88;;;10.10;99.90;;;;;;5058423;28;20063;-71
2022/06/21 04:06:22;;;;;;;6.22;2.67;;;10.00;99.90;;;;;;5071976;28;20124;-71
2022/06/21 04:08:55;;;;;;;6.45;2.85;;;10.00;99.90;;;;;;5034415;28;20057;-71
2022/06/21 04:11:29;;;;;;;6.30;3.08;;;9.90;99.90;;;;;;5035578;28;20052;-71
2022/06/21 04:14:11;;;;;;;7.65;2.90;;;9.90;99.90;;;;;;5063913;28;20072;-72
2022/06/21 04:17:05;;;;;;;7.45;3.00;;;9.90;99.90;;;;;;5036802;28;20055;-73
2022/06/21 04:19:46;;;;;;;8.35;2.80;;;9.90;99.90;;;;;;5053962;28;20076;-72
2022/06/21 04:22:24;;;;;;;5.82;2.78;;;10.00;99.90;;;;;;5052056;28;20061;-72
2022/06/21 04:25:04;;;;;;;6.15;3.55;;;10.00;99.90;;;;;;5034679;28;20057;-73
2022/06/21 04:28:07;;;;;;;8.23;4.07;;;10.00;99.90;;;;;;5052269;28;22291;-73
2022/06/21 04:30:48;;;;;;;8.52;4.35;;;10.10;99.90;;;;;;5061673;28;20550;-72
2022/06/21 04:33:33;;;;;;;10.03;5.20;;;10.10;99.90;;;;;;5055173;28;20091;-71
2022/06/21 04:36:29;;;;;;;8.43;4.57;;;10.10;99.90;;;;;;5037401;28;20148;-71
2022/06/21 04:39:14;;;;;;;8.07;5.18;;;10.20;99.90;;;;;;5037013;28;20068;-71
2022/06/21 04:42:16;;;;;;;9.25;4.80;;;10.20;99.90;;;;;;5072549;28;20052;-71
2022/06/21 04:44:49;;;;;;;8.52;4.80;;;10.30;99.90;;;;;;5056855;28;20491;-71
2022/06/21 04:47:44;;;;;;;11.27;5.18;;;10.40;99.90;;;;;;5060179;28;20056;-72
2022/06/21 04:50:26;;;;;;;9.05;4.35;;;10.50;99.90;;;;;;5045372;28;20135;-72
2022/06/21 04:53:03;;;;;;;8.90;4.80;;;10.60;99.90;;;;;;5035065;28;20057;-72
2022/06/21 04:55:42;;;;;;;11.50;4.82;;;10.70;99.90;;;;;;5060746;28;20131;-73
2022/06/21 04:58:10;;;;;;;9.27;5.38;;;10.80;99.90;;;;;;5051861;28;20502;-73
2022/06/21 05:00:36;;;;;;;11.43;5.00;;;11.50;99.90;;;;;;5046940;28;20437;-72
2022/06/21 05:03:14;;;;;;;11.60;4.55;;;12.20;99.90;;;;;;5026422;28;20056;-72
2022/06/21 05:05:39;;;;;;;9.02;4.10;;;12.90;99.90;;;;;;5041813;28;20075;-79
2022/06/21 05:08:09;;;;;;;8.13;3.55;;;13.80;99.90;;;;;;5046265;28;20056;-72
2022/06/21 05:10:38;;;;;;;7.57;2.92;;;14.30;99.90;;;;;;5063576;28;20124;-72
2022/06/21 05:13:12;;;;;;;8.20;3.45;;;14.80;99.90;;;;;;5034785;28;20126;-72
2022/06/21 05:15:40;;;;;;;7.90;3.15;;;14.80;99.90;;;;;;5046557;28;20056;-80
2022/06/21 05:18:33;;;;;;;7.75;3.17;;;14.50;99.90;;;;;;5033656;28;20053;-73
2022/06/21 05:21:06;;;;;;;7.28;3.22;;;14.40;99.90;;;;;;5044032;28;20391;-73
2022/06/21 05:23:32;;;;;;;6.97;3.40;;;14.10;99.90;;;;;;5047714;28;20064;-73
2022/06/21 05:26:01;;;;;;;8.63;3.63;;;14.00;99.90;;;;;;5026459;28;20052;-73
2022/06/21 05:28:39;;;;;;;8.00;3.47;;;13.90;99.90;;;;;;5043696;28;20045;-73
2022/06/21 05:31:24;;;;;;;8.00;3.97;;;13.90;99.90;;;;;;5044876;28;20076;-72
2022/06/21 05:33:52;;;;;;;7.38;3.47;;;13.90;99.90;;;;;;5063998;28;20051;-74
2022/06/21 05:36:26;;;;;;;8.55;3.97;;;13.90;99.90;;;;;;5049835;28;20475;-72
2022/06/21 05:38:59;;;;;;;9.13;4.18;;;13.90;99.90;;;;;;5034007;28;20047;-73
2022/06/21 05:41:34;;;;;;;9.60;3.78;;;13.90;99.90;;;;;;5051873;28;20100;-73
2022/06/21 05:44:27;;;;;;;9.60;4.20;;;14.00;99.90;;;;;;5022931;28;20048;-73
2022/06/21 05:47:01;;;;;;;12.13;4.05;;;14.10;99.90;;;;;;5055519;28;20056;-73
2022/06/21 05:49:31;;;;;;;10.15;3.35;;;14.10;99.90;;;;;;5042239;28;20577;-73
2022/06/21 05:52:01;;;;;;;12.70;4.18;;;14.10;99.90;;;;;;5049212;28;20123;-73
2022/06/21 05:54:33;;;;;;;10.40;3.95;;;14.10;99.90;;;;;;5050182;28;20380;-73
2022/06/21 05:57:02;;;;;;;10.27;4.82;;;14.10;99.90;;;;;;5062475;28;20483;-74
2022/06/21 05:59:28;;;;;;;8.23;4.72;;;14.30;99.90;;;;;;5032259;28;20384;-74
2022/06/21 06:02:01;;;;;;;10.05;4.25;;;14.30;99.90;;;;;;5049238;28;20048;-72
2022/06/21 06:04:38;;;;;;;10.40;4.10;;;14.30;99.90;;;;;;5048541;28;20044;-72
2022/06/21 06:07:07;;;;;;;9.95;4.53;;;14.40;99.90;;;;;;5036391;28;20076;-72
2022/06/21 06:09:47;;;;;;;10.05;4.07;;;14.50;99.90;;;;;;5049818;28;20067;-73
2022/06/21 06:12:21;;;;;;;10.77;3.83;;;14.60;99.90;;;;;;5025082;28;20495;-72
2022/06/21 06:14:55;;;;;;;8.75;4.20;;;14.60;99.90;;;;;;5037062;28;20056;-73
2022/06/21 06:18:02;;;;;;;11.88;4.18;;;14.60;99.90;;;;;;5045700;28;20066;-74
2022/06/21 06:20:34;;;;;;;8.43;3.70;;;14.50;99.90;;;;;;5034333;28;20186;-74
2022/06/21 06:23:08;;;;;;;9.88;4.22;;;14.70;99.90;;;;;;5056019;28;20048;-74
2022/06/21 06:25:36;;;;;;;10.43;4.28;;;15.20;99.90;;;;;;5042276;28;20049;-82
2022/06/21 06:28:20;;;;;;;9.80;4.40;;;15.40;99.90;;;;;;5050519;28;20044;-75
2022/06/21 06:31:25;;;;;;;9.43;4.32;;;15.70;99.90;;;;;;5056341;28;20079;-75
2022/06/21 06:34:01;;;;;;;8.07;2.92;;;16.30;99.90;;;;;;5056445;28;20049;-76
2022/06/21 06:36:59;;;;;;;9.40;2.75;;;17.80;99.90;;;;;;5042742;28;20067;-75
2022/06/21 06:39:28;;;;;;;7.75;2.67;;;19.30;99.90;;;;;;5034693;28;20052;-74
2022/06/21 06:42:28;;;;;;;7.90;2.17;;;20.20;99.90;;;;;;5045284;28;20060;-75
2022/06/21 06:44:59;;;;;;;12.20;2.38;;;20.20;97.30;;;;;;5010421;28;20110;-74
2022/06/21 06:47:37;;;;;;;6.28;1.90;;;20.80;97.90;;;;;;5039523;28;20048;-75
2022/06/21 06:50:23;;;;;;;6.88;1.70;;;20.80;92.80;;;;;;5053391;28;20418;-76
2022/06/21 06:52:58;;;;;;;7.75;1.80;;;21.00;93.40;;;;;;5052289;28;20041;-76
2022/06/21 06:55:42;;;;;;;5.50;1.42;;;21.30;93.10;;;;;;5039116;28;20067;-78
2022/06/21 06:58:37;;;;;;;7.20;1.60;;;21.50;88.40;;;;;;5035707;28;20049;-77
2022/06/21 07:01:15;;;;;;;6.95;1.70;;;21.00;82.10;;;;;;5032901;28;20384;-76
2022/06/21 07:04:13;;;;;;;7.75;1.83;;;21.00;89.30;;;;;;5047447;28;20041;-76
2022/06/21 07:06:47;;;;;;;5.95;1.67;;;21.10;90.80;;;;;;5049849;28;20435;-76
2022/06/21 07:09:33;;;;;;;9.77;1.67;;;21.90;88.80;;;;;;5034035;28;20083;-77
2022/06/21 07:12:15;;;;;;;6.70;1.88;;;22.30;84.60;;;;;;5041806;28;20060;-76
2022/06/21 07:14:42;;;;;;;6.88;1.80;;;22.80;78.70;;;;;;5044422;28;20052;-78
2022/06/21 07:17:20;;;;;;;8.00;1.67;;;22.90;77.60;;;;;;5041649;28;20548;-77
2022/06/21 07:19:46;;;;;;;6.15;1.55;;;22.80;82.00;;;;;;5044876;28;20056;-79
2022/06/21 07:22:21;;;;;;;6.05;1.70;;;22.80;79.30;;;;;;5042838;28;20099;-77
2022/06/21 07:25:01;;;;;;;8.25;1.80;;;23.10;76.10;;;;;;5040473;28;20060;-76
2022/06/21 07:27:29;;;;;;;5.80;1.42;;;23.40;74.50;;;;;;5054377;28;20120;-78
2022/06/21 07:30:05;;;;;;;6.05;1.50;;;23.50;75.50;;;;;;5033707;28;20133;-79
2022/06/21 07:32:51;;;;;;;6.07;1.70;;;23.70;72.90;;;;;;5038206;28;20045;-78
2022/06/21 07:35:26;;;;;;;5.72;1.38;;;23.20;69.20;;;;;;5017126;28;20107;-78
2022/06/21 07:37:56;;;;;;;6.70;1.40;;;23.50;71.80;;;;;;5024165;28;20074;-77
2022/06/21 07:40:28;;;;;;;5.63;1.60;;;23.20;67.40;;;;;;5031223;28;20540;-78
2022/06/21 07:43:06;;;;;;;7.72;1.75;;;23.20;65.70;;;;;;5053015;28;20045;-78
2022/06/21 07:45:53;;;;;;;6.22;1.60;;;22.90;66.20;;;;;;5040912;28;20138;-77
2022/06/21 07:48:22;;;;;;;6.78;1.60;;;22.70;72.20;;;;;;5041336;28;20044;-77
2022/06/21 07:51:11;;;;;;;8.13;1.90;;;22.30;70.10;;;;;;5052225;28;20083;-77
2022/06/21 07:53:51;;;;;;;6.53;1.60;;;21.90;73.20;;;;;;5033268;28;20167;-76
2022/06/21 07:56:22;;;;;;;6.82;1.70;;;21.70;75.70;;;;;;5034145;28;20092;-78
2022/06/21 07:59:04;;;;;;;5.97;1.60;;;21.90;72.60;;;;;;5039498;28;20503;-76
2022/06/21 08:07:25;;;;;;;6.50;1.30;;;22.90;70.30;;;;;;5049925;28;20106;-77
2022/06/21 08:10:04;;;;;;;8.48;1.63;;;22.80;65.70;;;;;;5036216;28;20148;-77
2022/06/21 08:12:29;;;;;;;10.45;2.00;;;23.20;70.00;;;;;;5042232;28;20127;-77
2022/06/21 08:14:55;;;;;;;6.18;1.70;;;23.00;69.30;;;;;;5057062;28;20040;-78
2022/06/21 08:17:21;;;;;;;8.10;1.60;;;23.30;70.70;;;;;;5055453;28;20075;-77
2022/06/21 08:20:03;;;;;;;5.68;1.90;;;23.50;70.00;;;;;;5054055;28;20091;-78
2022/06/21 08:22:37;;;;;;;;;;;23.40;65.80;;;;;;5053474;28;20041;-79
2022/06/21 08:25:24;;;;;;;7.82;1.80;;;23.20;67.30;;;;;;5053724;28;19956;-76
2022/06/21 08:27:59;;;;;;;7.10;1.80;;;22.80;69.10;;;;;;5034032;28;20045;-76
2022/06/21 08:30:39;;;;;;;6.93;1.67;;;22.90;69.80;;;;;;5054998;28;20064;-77
2022/06/21 08:33:43;;;;;;;5.10;1.40;;;23.20;66.90;;;;;;5053593;28;20076;-77
2022/06/21 08:36:18;;;;;;;6.05;1.70;;;23.20;67.10;;;;;;5036497;28;20049;-77
2022/06/21 08:38:53;;;;;;;6.53;1.50;;;23.00;69.50;;;;;;5033432;28;20049;-76
2022/06/21 08:41:52;;;;;;;6.63;1.85;;;23.00;69.90;;;;;;5038083;28;20045;-77
2022/06/21 08:44:48;;;;;;;5.82;1.52;;;22.60;68.90;;;;;;5035530;28;20060;-76
2022/06/21 08:47:49;;;;;;;6.38;1.60;;;22.70;66.30;;;;;;5035936;28;20553;-78
2022/06/21 08:50:30;;;;;;;7.10;1.80;;;22.90;66.90;;;;;;4993907;28;20100;-76
2022/06/21 08:53:02;;;;;;;5.97;1.50;;;23.40;68.10;;;;;;5056409;28;20040;-76
2022/06/21 08:55:52;;;;;;;8.32;1.60;;;23.80;64.90;;;;;;5056169;28;20107;-76
2022/06/21 08:58:33;;;;;;;5.95;1.60;;;24.00;62.10;;;;;;5036750;28;20037;-78
2022/06/21 09:01:08;;;;;;;7.43;1.65;;;24.10;61.70;;;;;;5059062;28;20538;-78
2022/06/21 09:04:03;;;;;;;6.55;1.80;;;22.90;60.80;;;;;;5056105;28;20384;-77
2022/06/21 09:06:47;;;;;;;6.03;1.60;;;22.80;58.70;;;;;;5054560;28;20053;-76
2022/06/21 09:09:34;;;;;;;7.05;1.63;;;22.30;63.20;;;;;;5053765;28;20092;-77
2022/06/21 09:12:09;;;;;;;5.13;1.35;;;21.90;65.20;;;;;;5039670;28;20517;-76
2022/06/21 09:15:12;;;;;;;6.22;1.50;;;22.10;67.90;;;;;;5051407;28;20128;-77
2022/06/21 09:18:02;;;;;;;4.68;1.40;;;22.80;66.60;;;;;;5055154;28;20394;-77
2022/06/21 09:20:38;;;;;;;7.50;1.60;;;22.90;64.30;;;;;;5055962;28;20056;-76
2022/06/21 09:23:21;;;;;;;5.07;1.25;;;23.30;65.20;;;;;;5037423;28;20045;-78
2022/06/21 09:26:24;;;;;;;4.95;1.40;;;23.50;65.90;;;;;;5037196;28;20541;-77
2022/06/21 09:28:57;;;;;;;5.00;1.30;;;23.70;63.00;;;;;;5054221;28;20491;-78
2022/06/21 09:31:48;;;;;;;6.00;1.38;;;23.90;60.10;;;;;;5059215;28;20048;-76
2022/06/21 09:34:45;;;;;;;4.60;1.25;;;24.00;57.30;;;;;;5058806;28;20064;-81
2022/06/21 09:37:35;;;;;;;5.45;1.40;;;24.20;57.70;;;;;;5054109;28;20056;-78
2022/06/21 09:40:15;;;;;;;5.43;1.30;;;24.40;56.90;;;;;;5058773;28;20304;-77
2022/06/21 09:43:08;;;;;;;5.72;1.30;;;24.10;56.20;;;;;;5042983;28;20132;-79
2022/06/21 09:46:16;;;;;;;4.85;1.30;;;24.00;56.40;;;;;;5054373;28;20041;-77
2022/06/21 09:49:01;;;;;;;4.10;1.15;;;24.30;58.20;;;;;;5034507;28;20394;-77
2022/06/21 09:51:40;;;;;;;7.30;1.73;;;24.20;55.30;;;;;;5046075;28;20052;-79
2022/06/21 09:54:31;;;;;;;7.22;1.50;;;23.90;58.10;;;;;;5038681;28;20499;-74
2022/06/21 09:57:06;;;;;;;7.82;1.63;;;24.10;57.90;;;;;;5046179;28;20063;-76
2022/06/21 10:00:00;;;;;;;6.53;1.80;;;24.00;58.20;;;;;;5047376;28;20059;-77
2022/06/21 10:02:39;;;;;;;6.20;1.85;;;23.80;59.20;;;;;;5048252;28;20063;-77
2022/06/21 10:05:25;;;;;;;6.03;1.55;;;23.30;59.70;;;;;;5044214;28;20055;-78
2022/06/21 10:07:58;;;;;;;6.38;1.70;;;23.00;59.80;;;;;;5057879;28;20045;-77
2022/06/21 10:10:40;;;;;;;5.93;1.55;;;23.40;59.60;;;;;;5026360;28;20045;-76
2022/06/21 10:13:37;;;;;;;6.15;1.58;;;23.40;59.40;;;;;;5040785;28;20115;-76
2022/06/21 10:16:23;;;;;;;5.35;1.40;;;23.20;60.90;;;;;;5055907;28;20032;-77
2022/06/21 10:19:23;;;;;;;4.40;1.27;;;23.50;58.50;;;;;;5055289;28;20045;-79
2022/06/21 10:22:07;;;;;;;6.25;1.40;;;23.60;56.50;;;;;;5052965;28;20387;-78
2022/06/21 10:25:06;;;;;;;3.78;1.20;;;23.90;58.00;;;;;;5052976;28;20048;-76
2022/06/21 10:27:44;;;;;;;4.72;1.10;;;24.00;56.90;;;;;;5057492;28;20045;-78
2022/06/21 10:30:43;;;;;;;4.80;1.10;;;23.90;55.50;;;;;;5038737;28;20044;-78
2022/06/21 10:33:30;;;;;;;6.10;1.35;;;24.30;55.20;;;;;;5057558;28;20122;-77
2022/06/21 10:36:19;;;;;;;5.72;1.35;;;24.00;50.30;;;;;;5055684;28;20045;-79
2022/06/21 10:38:59;;;;;;;4.25;1.10;;;24.30;53.70;;;;;;5057059;28;20122;-77
2022/06/21 10:41:32;;;;;;;5.00;1.08;;;24.60;52.80;;;;;;5034794;28;20140;-78
2022/06/21 10:44:39;;;;;;;4.43;1.00;;;24.70;52.40;;;;;;5054531;28;20431;-77
2022/06/21 10:47:28;;;;;;;5.03;1.23;;;24.80;52.10;;;;;;5002105;28;20095;-77
2022/06/21 10:50:07;;;;;;;4.68;1.10;;;24.90;52.40;;;;;;5042005;28;20352;-80
2022/06/21 10:52:35;;;;;;;4.22;1.10;;;25.20;52.80;;;;;;5052874;28;20048;-76
2022/06/21 10:55:28;;;;;;;4.60;1.10;;;25.30;49.30;;;;;;5059114;28;20106;-80
2022/06/21 10:58:08;;;;;;;3.53;1.05;;;25.40;51.00;;;;;;5049083;28;20060;-77
2022/06/21 11:03:30;;;;;;;4.18;1.20;;;24.90;47.80;;;;;;5036206;28;20060;-79
2022/06/21 11:06:13;;;;;;;4.85;1.00;;;24.90;49.60;;;;;;5054942;28;20040;-79
2022/06/21 11:09:14;;;;;;;4.47;1.10;;;25.10;50.30;;;;;;5034530;28;20052;-79
2022/06/21 11:11:50;;;;;;;5.03;1.00;;;25.40;48.00;;;;;;5046482;28;20053;-79
2022/06/21 11:14:30;;;;;;;4.15;1.20;;;25.30;48.80;;;;;;5052064;28;20487;-79
2022/06/21 11:17:23;;;;;;;5.60;1.30;;;25.20;46.40;;;;;;5057145;28;20052;-79
2022/06/21 11:20:07;;;;;;;4.60;1.00;;;25.10;47.70;;;;;;5055101;28;20107;-78
2022/06/21 11:22:39;;;;;;;3.88;0.95;;;25.40;45.70;;;;;;5039924;28;20048;-80
2022/06/21 11:25:36;;;;;;;4.13;1.00;;;25.50;46.80;;;;;;5051083;28;20498;-81
2022/06/21 11:28:39;;;;;;;4.07;1.00;;;25.40;44.40;;;;;;5034131;28;20052;-80
2022/06/21 11:31:13;;;;;;;5.07;1.20;;;25.40;47.80;;;;;;5033340;28;20081;-81
2022/06/21 11:33:41;;;;;;;4.85;1.20;;;25.40;48.60;;;;;;5048191;28;20493;-78
2022/06/21 11:36:17;;;;;;;4.25;1.20;;;25.40;47.80;;;;;;5055147;28;20052;-79
2022/06/21 11:39:04;;;;;;;4.15;1.10;;;25.30;48.80;;;;;;5036397;28;20049;-78
2022/06/21 11:42:06;;;;;;;4.53;1.20;;;25.10;47.10;;;;;;5055804;28;20079;-79
2022/06/21 11:44:50;;;;;;;;;;;24.70;50.40;;;;;;5051911;28;20049;-79
2022/06/21 11:47:46;;;;;;;4.72;1.20;;;24.80;51.30;;;;;;5036403;28;20377;-78
2022/06/21 11:50:29;;;;;;;5.18;1.10;;;24.40;51.40;;;;;;5033121;28;20048;-78
2022/06/21 11:53:21;;;;;;;4.40;1.17;;;24.60;51.10;;;;;;5033913;28;20534;-77
2022/06/21 11:55:56;;;;;;;5.18;1.30;;;24.10;51.40;;;;;;5052288;28;20105;-78
2022/06/21 11:58:53;;;;;;;4.35;1.10;;;23.90;53.30;;;;;;5054754;28;20048;-79
2022/06/21 12:01:36;;;;;;;5.10;1.30;;;24.00;53.60;;;;;;5036217;28;20456;-79
2022/06/21 12:04:23;;;;;;;4.85;1.30;;;23.90;53.30;;;;;;5052858;28;20048;-77
2022/06/21 12:07:01;;;;;;;4.57;1.25;;;23.80;54.10;;;;;;5035358;28;20044;-79
2022/06/21 12:09:37;;;;;;;4.93;1.25;;;23.80;54.20;;;;;;5054316;28;20088;-80
2022/06/21 12:12:40;;;;;;;4.82;1.30;;;23.90;54.50;;;;;;5052694;28;20486;-78
2022/06/21 12:15:30;;;;;;;5.95;1.33;;;24.20;50.40;;;;;;5051814;28;20503;-80
2022/06/21 12:18:15;;;;;;;6.18;1.40;;;24.30;53.00;;;;;;5037656;28;20040;-77
2022/06/21 12:20:47;;;;;;;4.18;1.30;;;24.40;50.70;;;;;;5038591;28;20037;-80
2022/06/21 12:23:35;;;;;;;4.63;1.17;;;24.20;51.90;;;;;;5039302;28;20049;-78
2022/06/21 12:26:02;;;;;;;5.60;1.40;;;24.20;52.40;;;;;;5041170;28;20059;-80
2022/06/21 12:28:35;;;;;;;4.20;1.15;;;24.20;51.30;;;;;;5050431;28;20056;-80
2022/06/21 12:31:15;;;;;;;4.30;1.20;;;24.10;53.40;;;;;;5034742;28;20072;-78
2022/06/21 12:33:45;;;;;;;4.70;1.30;;;24.20;50.30;;;;;;5036003;28;20048;-79
2022/06/21 12:36:34;;;;;;;6.15;1.40;;;23.80;52.30;;;;;;5036783;28;20056;-79
2022/06/21 12:39:10;;;;;;;4.97;1.40;;;23.70;54.60;;;;;;5049245;28;20072;-79
2022/06/21 12:41:47;;;;;;;4.47;1.20;;;23.70;53.30;;;;;;5027668;28;20055;-79
2022/06/21 12:44:32;;;;;;;6.63;1.40;;;23.50;54.20;;;;;;5033358;28;20053;-80
2022/06/21 12:47:17;;;;;;;4.97;1.13;;;23.20;54.20;;;;;;5051705;28;20041;-77
2022/06/21 12:50:20;;;;;;;3.95;1.20;;;23.50;53.40;;;;;;5052585;28;20037;-78
2022/06/21 12:53:09;;;;;;;4.88;1.30;;;23.40;54.50;;;;;;5052406;28;20131;-79
2022/06/21 12:55:43;;;;;;;4.70;1.20;;;23.20;54.20;;;;;;5033121;28;20049;-80
2022/06/21 12:58:33;;;;;;;3.97;1.15;;;23.40;55.30;;;;;;5051411;28;20045;-78
2022/06/21 13:01:09;;;;;;;4.82;1.27;;;23.80;53.10;;;;;;5034489;28;20049;-79
2022/06/21 13:04:12;;;;;;;4.57;1.30;;;23.80;55.00;;;;;;5024094;28;20052;-78
2022/06/21 13:07:35;;;;;;;5.47;1.30;;;23.80;54.80;;;;;;5052653;28;20049;-79
2022/06/21 13:10:30;;;;;;;4.47;1.27;;;24.00;55.80;;;;;;4951136;28;20099;-79
2022/06/21 13:13:01;;;;;;;6.82;1.30;;;24.20;55.90;;;;;;5053512;28;20053;-79
2022/06/21 13:15:48;;;;;;;4.40;1.13;;;24.00;54.70;;;;;;5035495;28;20479;-75
2022/06/21 13:18:32;;;;;;;5.57;1.38;;;24.20;53.50;;;;;;5040640;28;20119;-79
2022/06/21 13:21:13;;;;;;;5.22;1.40;;;24.20;52.40;;;;;;5034384;28;20036;-80
2022/06/21 13:23:50;;;;;;;5.60;1.30;;;24.30;54.80;;;;;;5034246;28;20056;-79
2022/06/21 13:26:53;;;;;;;5.45;1.13;;;24.60;55.10;;;;;;5033969;28;20053;-79
2022/06/21 13:29:53;;;;;;;4.90;1.20;;;24.80;53.20;;;;;;5052986;28;20515;-79
2022/06/21 13:32:24;;;;;;;5.57;1.20;;;24.80;53.20;;;;;;5035180;28;20049;-78
2022/06/21 13:34:54;;;;;;;4.32;1.05;;;24.90;51.60;;;;;;5033644;28;20048;-79
2022/06/21 13:37:22;;;;;;;4.28;1.20;;;24.70;52.60;;;;;;5041937;28;20430;-79
2022/06/21 13:40:08;;;;;;;4.38;1.17;;;24.10;53.00;;;;;;5041844;28;20055;-80
2022/06/21 13:42:41;;;;;;;5.15;1.30;;;23.90;53.20;;;;;;5050771;28;20052;-79
2022/06/21 13:45:32;;;;;;;5.63;1.20;;;23.50;52.90;;;;;;5046769;28;20053;-79
2022/06/21 13:48:19;;;;;;;4.57;1.20;;;23.30;55.00;;;;;;5056041;28;20479;-79
2022/06/21 13:50:51;;;;;;;4.68;1.27;;;23.30;55.60;;;;;;4994736;28;20054;-79
2022/06/21 13:53:35;;;;;;;4.65;1.30;;;23.60;53.10;;;;;;5033955;28;20052;-79
2022/06/21 13:56:07;;;;;;;4.70;1.25;;;23.40;54.40;;;;;;5036465;28;20052;-79
2022/06/21 13:58:37;;;;;;;;;;;23.50;55.50;;;;;;5053507;28;20423;-79
2022/06/21 14:01:16;;;;;;;4.82;1.38;;;23.50;53.60;;;;;;5039230;28;19927;-79